Time;durP1;ratioP1;P1;durP2;ratioP2;P2;SDS_P1;SDS_P2;PMS_P1;PMS_P2;Temp;Humidity;BMP_temperature;BMP_pressure;BME280_temperature;BME280_humidity;BME280_pressure;Samples;Min_cycle;Max_cycle;Signal;HPM_P1;HPM_P2
2021/09/13 00:00:37;;;;;;;2.27;2.07;;;20.40;1.00;;;;;;5008420;28;20458;-75
2021/09/13 00:03:05;;;;;;;2.33;2.00;;;20.40;1.00;;;;;;5008666;28;20469;-78
2021/09/13 00:05:34;;;;;;;1.77;1.67;;;20.40;1.00;;;;;;5010450;28;20479;-78
2021/09/13 00:08:02;;;;;;;2.60;2.23;;;20.40;1.00;;;;;;5010397;28;20507;-78
2021/09/13 00:10:30;;;;;;;3.30;1.80;;;20.30;1.00;;;;;;5009645;28;20496;-77
2021/09/13 00:12:58;;;;;;;2.40;2.20;;;20.30;1.00;;;;;;5010345;28;20473;-76
2021/09/13 00:15:27;;;;;;;3.90;1.90;;;20.30;1.00;;;;;;5007238;28;20513;-79
2021/09/13 00:17:55;;;;;;;2.10;1.90;;;20.30;1.00;;;;;;5011382;28;20457;-75
2021/09/13 00:20:23;;;;;;;2.07;1.97;;;20.30;1.00;;;;;;5007645;28;20511;-78
2021/09/13 00:22:52;;;;;;;2.03;1.87;;;20.30;1.00;;;;;;5010950;28;20558;-78
2021/09/13 00:25:20;;;;;;;2.20;2.07;;;20.30;1.00;;;;;;5010355;28;20484;-77
2021/09/13 00:27:48;;;;;;;2.50;1.63;;;20.30;1.00;;;;;;5011295;28;20453;-78
2021/09/13 00:30:17;;;;;;;2.83;2.00;;;20.30;1.00;;;;;;5007766;28;20456;-78
2021/09/13 00:32:46;;;;;;;1.80;1.70;;;20.20;1.00;;;;;;5009746;28;20488;-78
2021/09/13 00:35:15;;;;;;;2.07;1.93;;;20.10;1.00;;;;;;5009931;28;20853;-78
2021/09/13 00:37:43;;;;;;;2.43;2.23;;;20.20;1.00;;;;;;5008116;28;20445;-77
2021/09/13 00:40:12;;;;;;;1.90;1.80;;;20.30;1.00;;;;;;5008326;28;20458;-75
2021/09/13 00:42:40;;;;;;;2.63;2.10;;;20.30;1.00;;;;;;5004046;28;21216;-78
2021/09/13 00:45:09;;;;;;;3.03;2.17;;;20.30;1.00;;;;;;5008399;28;20543;-77
2021/09/13 00:47:37;;;;;;;2.00;1.90;;;20.30;1.00;;;;;;5008942;28;20519;-77
2021/09/13 00:50:08;;;;;;;4.80;2.37;;;20.20;1.00;;;;;;5008069;28;20495;-77
2021/09/13 00:52:36;;;;;;;2.70;1.83;;;20.30;1.00;;;;;;5009418;28;20505;-77
2021/09/13 00:55:06;;;;;;;2.43;2.23;;;20.30;1.00;;;;;;5009604;28;20449;-78
2021/09/13 00:57:35;;;;;;;3.53;2.07;;;20.30;1.00;;;;;;5010269;28;20523;-77
2021/09/13 01:00:05;;;;;;;2.10;1.90;;;20.30;1.00;;;;;;5009238;28;20457;-77
2021/09/13 01:02:33;;;;;;;2.90;1.60;;;20.30;1.00;;;;;;5008225;28;20492;-78
2021/09/13 01:05:02;;;;;;;2.40;2.20;;;20.30;1.00;;;;;;5010242;28;20988;-78
2021/09/13 01:07:32;;;;;;;2.30;2.10;;;20.30;1.00;;;;;;5008524;28;21059;-78
2021/09/13 01:10:01;;;;;;;1.70;1.60;;;20.30;1.00;;;;;;5008355;28;20461;-78
2021/09/13 01:12:29;;;;;;;1.67;1.57;;;20.10;1.00;;;;;;5007906;28;21184;-78
2021/09/13 01:14:57;;;;;;;2.13;1.93;;;20.10;1.00;;;;;;5008216;28;20458;-76
2021/09/13 01:17:25;;;;;;;2.27;2.10;;;20.00;1.00;;;;;;5007937;28;20891;-79
2021/09/13 01:19:53;;;;;;;2.07;1.73;;;20.00;1.00;;;;;;5008301;28;20511;-77
2021/09/13 01:22:21;;;;;;;2.83;2.63;;;20.10;1.00;;;;;;5008279;28;20852;-77
2021/09/13 01:24:51;;;;;;;2.50;2.30;;;20.20;1.00;;;;;;5008695;28;20448;-78
2021/09/13 01:27:20;;;;;;;2.43;2.23;;;20.10;1.00;;;;;;5009725;28;20452;-78
2021/09/13 01:29:48;;;;;;;1.70;1.60;;;20.00;1.00;;;;;;5007411;28;20989;-78
2021/09/13 01:32:16;;;;;;;1.80;1.70;;;20.10;1.00;;;;;;5007863;28;21078;-78
2021/09/13 01:34:44;;;;;;;4.37;1.80;;;20.10;1.00;;;;;;5006832;28;20492;-76
2021/09/13 01:37:13;;;;;;;3.20;2.40;;;20.20;1.00;;;;;;5006501;28;20457;-77
2021/09/13 01:39:41;;;;;;;2.07;1.93;;;20.20;1.00;;;;;;5009018;28;20453;-76
2021/09/13 01:42:10;;;;;;;2.30;2.10;;;20.20;1.00;;;;;;5005010;28;21090;-77
2021/09/13 01:44:38;;;;;;;2.17;1.80;;;20.20;1.00;;;;;;5007315;28;20441;-77
2021/09/13 01:47:07;;;;;;;3.83;2.13;;;20.10;1.00;;;;;;5005811;28;20481;-77
2021/09/13 01:49:35;;;;;;;2.77;2.03;;;20.10;1.00;;;;;;5008518;28;20508;-78
2021/09/13 01:52:03;;;;;;;1.90;1.80;;;20.10;1.00;;;;;;5008136;28;20477;-77
2021/09/13 01:54:31;;;;;;;2.63;2.30;;;20.10;1.00;;;;;;5007617;28;20461;-77
2021/09/13 01:56:59;;;;;;;2.10;1.90;;;20.00;1.00;;;;;;5009288;28;20453;-77
2021/09/13 01:59:28;;;;;;;1.90;1.77;;;20.00;1.00;;;;;;5007927;28;20449;-78
2021/09/13 02:01:57;;;;;;;2.93;2.73;;;19.90;1.00;;;;;;5006832;28;20571;-77
2021/09/13 02:04:25;;;;;;;1.93;1.67;;;19.80;1.00;;;;;;5006611;28;20445;-78
2021/09/13 02:06:53;;;;;;;2.00;1.90;;;19.90;1.00;;;;;;5009471;28;20469;-75
2021/09/13 02:09:21;;;;;;;2.20;2.03;;;19.90;1.00;;;;;;5007576;28;20536;-78
2021/09/13 02:11:49;;;;;;;1.87;1.77;;;19.90;1.00;;;;;;5008399;28;20449;-77
2021/09/13 02:14:17;;;;;;;5.10;2.03;;;19.90;1.00;;;;;;5008079;28;20468;-78
2021/09/13 02:16:47;;;;;;;1.70;1.60;;;20.00;1.00;;;;;;5007172;28;20457;-77
2021/09/13 02:19:15;;;;;;;2.27;2.07;;;19.90;1.00;;;;;;5006753;28;20460;-78
2021/09/13 02:21:43;;;;;;;2.40;2.13;;;19.90;1.00;;;;;;5007840;28;20582;-78
2021/09/13 02:24:11;;;;;;;2.40;2.20;;;19.90;1.00;;;;;;5007439;28;20461;-77
2021/09/13 02:26:39;;;;;;;3.60;2.10;;;19.90;1.00;;;;;;5009156;28;20980;-76
2021/09/13 02:29:07;;;;;;;2.03;1.83;;;19.90;1.00;;;;;;5007191;28;20469;-76
2021/09/13 02:31:37;;;;;;;2.13;1.93;;;20.00;1.00;;;;;;5003050;28;20488;-74
2021/09/13 02:34:06;;;;;;;2.40;2.10;;;20.00;1.00;;;;;;5007961;28;21748;-76
2021/09/13 02:36:34;;;;;;;2.43;2.23;;;20.00;1.00;;;;;;5006355;28;20492;-77
2021/09/13 02:39:03;;;;;;;2.10;2.00;;;20.00;1.00;;;;;;5007665;28;20454;-77
2021/09/13 02:41:31;;;;;;;2.20;2.00;;;20.00;1.00;;;;;;5007695;28;20457;-77
2021/09/13 02:43:59;;;;;;;1.97;1.80;;;19.90;1.00;;;;;;5008090;28;20473;-77
2021/09/13 02:46:27;;;;;;;2.80;2.43;;;19.90;1.00;;;;;;5007136;28;20540;-77
2021/09/13 02:48:55;;;;;;;4.50;2.60;;;19.90;1.00;;;;;;5007612;28;20480;-77
2021/09/13 02:51:25;;;;;;;2.43;2.20;;;19.90;1.00;;;;;;5007172;28;20646;-77
2021/09/13 02:53:53;;;;;;;2.40;2.20;;;19.90;1.00;;;;;;5007509;28;20535;-77
2021/09/13 02:56:21;;;;;;;2.60;2.40;;;19.90;1.00;;;;;;5009206;28;20488;-77
2021/09/13 02:58:49;;;;;;;2.87;2.67;;;19.90;1.00;;;;;;5007673;28;20449;-77
2021/09/13 03:01:17;;;;;;;1.93;1.83;;;19.90;1.00;;;;;;5006293;28;20828;-77
2021/09/13 03:03:46;;;;;;;2.60;1.83;;;19.90;1.00;;;;;;5006944;28;20565;-77
2021/09/13 03:06:14;;;;;;;2.57;2.37;;;19.90;1.00;;;;;;5008769;28;20552;-77
2021/09/13 03:08:43;;;;;;;2.67;2.37;;;19.80;1.00;;;;;;5006456;28;20528;-77
2021/09/13 03:11:11;;;;;;;2.80;1.90;;;19.80;1.00;;;;;;5007066;28;20519;-77
2021/09/13 03:13:39;;;;;;;2.50;1.80;;;19.80;1.00;;;;;;5007320;28;20476;-77
2021/09/13 03:16:08;;;;;;;2.77;2.03;;;19.80;1.00;;;;;;5005446;28;20438;-76
2021/09/13 03:18:39;;;;;;;2.07;1.87;;;19.70;1.00;;;;;;5007373;28;20461;-77
2021/09/13 03:21:08;;;;;;;3.30;2.13;;;19.70;1.00;;;;;;5003665;28;20465;-77
2021/09/13 03:23:36;;;;;;;2.50;1.83;;;19.70;1.00;;;;;;5007776;28;20473;-77
2021/09/13 03:26:06;;;;;;;2.00;1.80;;;19.70;1.00;;;;;;5008771;28;20511;-77
2021/09/13 03:28:34;;;;;;;2.27;2.07;;;19.70;1.00;;;;;;5007370;28;20514;-77
2021/09/13 03:31:03;;;;;;;2.37;2.17;;;19.60;1.00;;;;;;5006243;28;20452;-77
2021/09/13 03:33:32;;;;;;;2.20;1.80;;;19.60;1.00;;;;;;5010530;28;20504;-78
2021/09/13 03:36:00;;;;;;;3.03;2.10;;;19.60;1.00;;;;;;5012398;28;20507;-78
2021/09/13 03:38:28;;;;;;;1.50;1.40;;;19.60;1.00;;;;;;5008119;28;20457;-78
2021/09/13 03:40:56;;;;;;;3.30;2.30;;;19.60;1.00;;;;;;5011175;28;20796;-78
2021/09/13 03:43:26;;;;;;;1.77;1.67;;;19.60;1.00;;;;;;5008286;28;20476;-77
2021/09/13 03:45:55;;;;;;;1.90;1.80;;;19.60;1.00;;;;;;5003313;28;20522;-77
2021/09/13 03:48:24;;;;;;;1.80;1.70;;;19.50;1.00;;;;;;5009770;28;20498;-77
2021/09/13 03:50:53;;;;;;;1.70;1.60;;;19.50;1.00;;;;;;5009442;28;20461;-78
2021/09/13 03:53:21;;;;;;;2.77;1.90;;;19.50;1.00;;;;;;5009612;28;20485;-78
2021/09/13 03:55:49;;;;;;;2.17;2.03;;;19.50;1.00;;;;;;5004255;28;20448;-77
2021/09/13 03:58:17;;;;;;;2.97;2.10;;;19.40;1.00;;;;;;5009244;28;20940;-77
2021/09/13 04:00:47;;;;;;;2.07;1.80;;;19.40;1.00;;;;;;5008730;28;20454;-78
2021/09/13 04:03:18;;;;;;;2.10;1.90;;;19.50;1.00;;;;;;5007579;28;20480;-78
2021/09/13 04:05:49;;;;;;;2.13;2.00;;;19.50;1.00;;;;;;5005180;28;20453;-78
2021/09/13 04:08:32;;;;;;;2.50;2.30;;;19.20;1.00;;;;;;5010169;28;20485;-79
2021/09/13 04:11:07;;;;;;;2.57;2.37;;;19.00;99.90;;;;;;5009930;28;20517;-79
2021/09/13 04:13:35;;;;;;;2.63;2.43;;;19.00;99.90;;;;;;5009528;28;20470;-78
2021/09/13 04:16:05;;;;;;;2.97;2.67;;;19.00;99.90;;;;;;5008975;28;20464;-79
2021/09/13 04:18:33;;;;;;;3.53;3.20;;;19.10;99.90;;;;;;5010471;28;20548;-79
2021/09/13 04:21:01;;;;;;;2.33;2.13;;;19.10;97.90;;;;;;5010688;28;20534;-78
2021/09/13 04:23:29;;;;;;;3.17;2.27;;;19.20;1.00;;;;;;5009220;28;20535;-79
2021/09/13 04:25:57;;;;;;;3.73;2.37;;;19.40;1.00;;;;;;5011459;28;20940;-79
2021/09/13 04:28:25;;;;;;;2.70;2.50;;;19.40;1.00;;;;;;5009283;28;20887;-79
2021/09/13 04:30:54;;;;;;;2.23;2.03;;;19.40;1.00;;;;;;5006803;28;20458;-77
2021/09/13 04:33:23;;;;;;;2.97;2.10;;;19.40;1.00;;;;;;5009441;28;20464;-78
2021/09/13 04:35:51;;;;;;;3.30;1.87;;;19.30;1.00;;;;;;5010478;28;20828;-79
2021/09/13 04:38:19;;;;;;;2.50;2.17;;;19.40;1.00;;;;;;5004833;28;20703;-78
2021/09/13 04:40:47;;;;;;;2.70;2.50;;;19.40;1.00;;;;;;5008159;28;20445;-79
2021/09/13 04:43:16;;;;;;;2.63;2.10;;;19.40;1.00;;;;;;5006469;28;20475;-78
2021/09/13 04:45:44;;;;;;;3.93;2.30;;;19.40;1.00;;;;;;5009194;28;20985;-77
2021/09/13 04:48:12;;;;;;;2.27;2.07;;;19.40;1.00;;;;;;5007530;28;20984;-81
2021/09/13 04:50:41;;;;;;;2.77;2.10;;;19.40;1.00;;;;;;5004754;28;20457;-73
2021/09/13 04:53:10;;;;;;;2.93;2.33;;;19.20;1.00;;;;;;5006835;28;20491;-75
2021/09/13 04:55:38;;;;;;;2.90;2.10;;;18.90;1.00;;;;;;5007827;28;20469;-82
2021/09/13 04:58:06;;;;;;;2.00;1.90;;;18.80;10.50;;;;;;5011742;28;20480;-83
2021/09/13 05:00:34;;;;;;;2.43;2.23;;;18.90;1.00;;;;;;5008182;28;20449;-81
2021/09/13 05:03:02;;;;;;;5.60;2.10;;;19.00;1.00;;;;;;5011515;28;20482;-83
2021/09/13 05:05:31;;;;;;;6.67;2.50;;;19.10;1.00;;;;;;5009596;28;20472;-81
2021/09/13 05:08:00;;;;;;;2.23;2.00;;;19.10;1.00;;;;;;5010337;28;20905;-81
2021/09/13 05:10:28;;;;;;;2.13;1.80;;;19.10;1.00;;;;;;5003619;28;20447;-81
2021/09/13 05:12:56;;;;;;;1.90;1.77;;;19.10;1.00;;;;;;5011426;28;20481;-81
2021/09/13 05:15:25;;;;;;;3.70;2.47;;;19.10;1.00;;;;;;5004904;28;20605;-81
2021/09/13 05:17:53;;;;;;;2.10;2.00;;;19.10;1.00;;;;;;5002603;28;20506;-80
2021/09/13 05:20:21;;;;;;;2.90;2.00;;;19.00;1.00;;;;;;5010656;28;20523;-83
2021/09/13 05:22:49;;;;;;;3.10;2.80;;;19.00;1.00;;;;;;5008963;28;20492;-84
2021/09/13 05:25:19;;;;;;;2.93;2.60;;;19.00;1.00;;;;;;5006635;28;20460;-81
2021/09/13 05:27:48;;;;;;;3.57;2.10;;;19.00;1.00;;;;;;5007195;28;20543;-81
2021/09/13 05:30:17;;;;;;;3.73;2.37;;;19.00;1.00;;;;;;5007869;28;20954;-81
2021/09/13 05:32:45;;;;;;;4.90;2.93;;;18.80;1.00;;;;;;5008094;28;20480;-81
2021/09/13 05:35:14;;;;;;;4.33;2.37;;;18.70;1.00;;;;;;5007287;28;20871;-81
2021/09/13 05:37:42;;;;;;;2.60;1.80;;;18.80;1.00;;;;;;5006103;28;20460;-81
2021/09/13 05:40:11;;;;;;;5.80;2.17;;;18.90;1.00;;;;;;5001181;28;20974;-79
2021/09/13 05:42:40;;;;;;;3.50;2.20;;;18.90;1.00;;;;;;5004394;28;20480;-79
2021/09/13 05:45:09;;;;;;;2.37;2.17;;;19.00;1.00;;;;;;5007834;28;20506;-77
2021/09/13 05:47:37;;;;;;;2.72;2.53;;;19.00;1.00;;;;;;5009650;28;20441;-81
2021/09/13 05:50:06;;;;;;;2.53;2.33;;;19.00;1.00;;;;;;4995595;28;20187;-81
2021/09/13 05:52:34;;;;;;;3.00;1.97;;;19.00;1.00;;;;;;5005438;28;20496;-81
2021/09/13 05:55:03;;;;;;;4.07;2.47;;;19.10;1.00;;;;;;5007459;28;20439;-81
2021/09/13 05:57:31;;;;;;;4.10;2.63;;;19.10;1.00;;;;;;5009506;28;20883;-80
2021/09/13 06:00:00;;;;;;;2.10;1.93;;;19.10;1.00;;;;;;5007346;28;20835;-81
2021/09/13 06:02:29;;;;;;;3.40;2.60;;;19.10;1.00;;;;;;5008914;28;20473;-82
2021/09/13 06:04:57;;;;;;;2.50;2.27;;;19.00;32.50;;;;;;5006148;28;20545;-81
2021/09/13 06:07:26;;;;;;;4.27;2.30;;;19.00;99.90;;;;;;5010947;28;20498;-81
2021/09/13 06:09:54;;;;;;;2.30;2.10;;;19.00;92.70;;;;;;5002966;28;20456;-82
2021/09/13 06:12:22;;;;;;;2.97;2.77;;;19.00;99.90;;;;;;5008137;28;20500;-81
2021/09/13 06:14:51;;;;;;;2.50;2.30;;;18.90;99.90;;;;;;5003373;28;20463;-80
2021/09/13 06:17:20;;;;;;;3.13;2.93;;;19.10;99.90;;;;;;5003243;28;20519;-79
2021/09/13 06:19:49;;;;;;;3.03;2.80;;;19.10;99.20;;;;;;5008494;28;20460;-81
2021/09/13 06:22:17;;;;;;;3.23;2.93;;;19.10;99.90;;;;;;5009174;28;20538;-80
2021/09/13 06:24:45;;;;;;;3.20;2.90;;;19.20;99.90;;;;;;5009814;28;20891;-80
2021/09/13 06:27:13;;;;;;;6.17;2.73;;;19.30;61.90;;;;;;5009542;28;20846;-79
2021/09/13 06:29:41;;;;;;;2.73;2.53;;;19.40;52.10;;;;;;5009028;28;20908;-79
2021/09/13 06:32:10;;;;;;;3.10;2.80;;;19.40;15.20;;;;;;5009755;28;21008;-79
2021/09/13 06:34:39;;;;;;;2.90;2.60;;;19.50;1.00;;;;;;5008478;28;20488;-78
2021/09/13 06:37:07;;;;;;;3.20;3.00;;;19.60;1.00;;;;;;5009621;28;20531;-80
2021/09/13 06:39:36;;;;;;;3.13;2.93;;;19.60;1.00;;;;;;5008744;28;20520;-80
2021/09/13 06:42:05;;;;;;;2.57;2.37;;;19.70;1.00;;;;;;5008738;28;20480;-80
2021/09/13 06:44:33;;;;;;;3.43;3.13;;;19.70;1.00;;;;;;5001121;28;21129;-77
2021/09/13 06:47:06;;;;;;;2.80;2.60;;;19.70;1.00;;;;;;5002227;28;20473;-77
2021/09/13 06:49:35;;;;;;;3.17;2.90;;;19.80;1.00;;;;;;5005379;28;20555;-78
2021/09/13 06:52:05;;;;;;;2.77;2.57;;;19.70;1.00;;;;;;5006894;28;20488;-79
2021/09/13 06:54:34;;;;;;;3.33;3.13;;;19.80;1.00;;;;;;5004571;28;20456;-79
2021/09/13 06:57:02;;;;;;;3.60;3.10;;;19.80;1.00;;;;;;5002975;28;20518;-78
2021/09/13 06:59:30;;;;;;;9.17;3.40;;;19.90;1.00;;;;;;5007529;28;20449;-78
2021/09/13 07:01:59;;;;;;;3.10;2.90;;;20.00;1.00;;;;;;5006658;28;20984;-78
2021/09/13 07:04:29;;;;;;;3.40;3.10;;;20.10;1.00;;;;;;5005979;28;20551;-78
2021/09/13 07:06:57;;;;;;;4.00;3.60;;;20.10;1.00;;;;;;5011846;28;20386;-78
2021/09/13 07:09:27;;;;;;;4.67;3.87;;;20.10;1.00;;;;;;5008785;28;20498;-76
2021/09/13 07:11:55;;;;;;;3.97;3.40;;;20.20;1.00;;;;;;5011929;28;20445;-77
2021/09/13 07:14:23;;;;;;;4.40;2.90;;;20.20;1.00;;;;;;5011956;28;20803;-77
2021/09/13 07:16:51;;;;;;;3.83;3.53;;;20.20;1.00;;;;;;5007955;28;20454;-77
2021/09/13 07:19:19;;;;;;;4.70;2.87;;;20.30;1.00;;;;;;5009703;28;20445;-78
2021/09/13 07:21:47;;;;;;;4.03;3.47;;;20.40;1.00;;;;;;5012457;28;20507;-77
2021/09/13 07:24:20;;;;;;;4.33;2.97;;;20.40;1.00;;;;;;5010749;28;20457;-77
2021/09/13 07:26:50;;;;;;;3.20;2.57;;;20.40;1.00;;;;;;5012206;28;20966;-77
2021/09/13 07:29:18;;;;;;;3.10;2.53;;;20.40;1.00;;;;;;5010131;28;20489;-77
2021/09/13 07:31:46;;;;;;;2.87;2.67;;;20.40;1.00;;;;;;5009325;28;20479;-78
2021/09/13 07:34:14;;;;;;;3.13;2.60;;;20.50;1.00;;;;;;5010326;28;20463;-78
2021/09/13 07:36:42;;;;;;;3.03;2.00;;;20.60;1.00;;;;;;5010781;28;20964;-77
2021/09/13 07:39:11;;;;;;;2.60;2.23;;;20.60;1.00;;;;;;5004157;28;20553;-77
2021/09/13 07:41:39;;;;;;;2.10;1.90;;;20.70;1.00;;;;;;5008640;28;20457;-74
2021/09/13 07:44:08;;;;;;;2.77;2.57;;;20.80;1.00;;;;;;5007923;28;20992;-77
2021/09/13 07:46:36;;;;;;;2.33;1.80;;;20.80;1.00;;;;;;5007726;28;20463;-76
2021/09/13 07:49:04;;;;;;;3.10;1.70;;;21.00;1.00;;;;;;5009273;28;20483;-78
2021/09/13 07:51:32;;;;;;;2.13;1.93;;;21.10;1.00;;;;;;5002604;28;20523;-76
2021/09/13 07:54:00;;;;;;;2.20;2.00;;;21.30;1.00;;;;;;5011195;28;20555;-78
2021/09/13 07:56:29;;;;;;;4.47;2.10;;;21.50;99.90;;;;;;5010694;28;20800;-78
2021/09/13 07:58:57;;;;;;;2.07;1.87;;;21.70;99.90;;;;;;5007724;28;20489;-78
2021/09/13 08:01:26;;;;;;;2.90;1.93;;;21.90;99.90;;;;;;5007375;28;20736;-78
2021/09/13 08:03:55;;;;;;;2.10;2.00;;;22.10;99.90;;;;;;5010742;28;20482;-78
2021/09/13 08:06:23;;;;;;;1.70;1.60;;;22.30;99.90;;;;;;5008888;28;20460;-79
2021/09/13 08:08:51;;;;;;;3.00;2.00;;;22.50;99.90;;;;;;5008838;28;20486;-79
2021/09/13 08:11:20;;;;;;;1.83;1.73;;;22.60;99.90;;;;;;5010391;28;20884;-78
2021/09/13 08:13:48;;;;;;;1.60;1.50;;;22.70;99.90;;;;;;5011138;28;20485;-77
2021/09/13 08:16:16;;;;;;;2.50;2.30;;;22.70;99.90;;;;;;5001186;28;20452;-79
2021/09/13 08:18:46;;;;;;;3.00;2.70;;;22.70;99.90;;;;;;5008325;28;20452;-79
2021/09/13 08:21:14;;;;;;;2.33;2.13;;;22.60;99.90;;;;;;5008225;28;20477;-78
2021/09/13 08:23:43;;;;;;;2.90;2.70;;;22.70;99.90;;;;;;5003741;28;20559;-79
2021/09/13 08:26:11;;;;;;;2.53;2.20;;;22.70;99.90;;;;;;4994738;28;20856;-78
2021/09/13 08:28:39;;;;;;;3.07;2.63;;;22.70;99.90;;;;;;5001910;28;20499;-78
2021/09/13 08:31:08;;;;;;;2.43;2.23;;;22.60;99.90;;;;;;5007943;28;20449;-77
2021/09/13 08:33:36;;;;;;;2.70;2.50;;;22.50;99.90;;;;;;5010340;28;20486;-78
2021/09/13 08:36:07;;;;;;;3.50;2.97;;;22.50;99.90;;;;;;5008889;28;20491;-78
2021/09/13 08:38:35;;;;;;;2.40;2.20;;;22.40;99.90;;;;;;5003492;28;20484;-79
2021/09/13 08:41:03;;;;;;;2.10;2.00;;;22.40;99.90;;;;;;5005871;28;20529;-78
2021/09/13 08:43:31;;;;;;;3.30;1.77;;;22.40;99.90;;;;;;5004560;28;20494;-79
2021/09/13 08:46:02;;;;;;;2.57;2.10;;;22.60;99.90;;;;;;4998616;28;20965;-76
2021/09/13 08:48:33;;;;;;;3.33;2.73;;;22.60;99.90;;;;;;5008319;28;20457;-77
2021/09/13 08:53:51;;;;;;;4.10;2.13;;;22.60;99.90;;;;;;5008802;28;20544;-79
2021/09/13 08:56:23;;;;;;;5.70;2.87;;;22.60;99.90;;;;;;5006332;28;20476;-80
2021/09/13 08:58:52;;;;;;;2.70;2.50;;;22.70;99.90;;;;;;5009112;28;20457;-78
2021/09/13 09:01:21;;;;;;;2.10;2.00;;;22.70;99.90;;;;;;5008971;28;20575;-78
2021/09/13 09:03:51;;;;;;;2.60;2.40;;;22.80;99.90;;;;;;5010423;28;20503;-78
2021/09/13 09:06:30;;;;;;;2.73;2.50;;;22.90;99.90;;;;;;5007898;28;20463;-78
2021/09/13 09:09:01;;;;;;;2.70;2.50;;;22.80;99.90;;;;;;5008871;28;20456;-74
2021/09/13 09:11:53;;;;;;;3.23;2.63;;;22.80;99.90;;;;;;5009047;28;20445;-78
2021/09/13 09:14:32;;;;;;;2.60;2.40;;;22.80;99.90;;;;;;5008958;28;20442;-78
2021/09/13 09:17:02;;;;;;;3.27;2.10;;;22.90;99.90;;;;;;5007049;28;20453;-78
2021/09/13 09:19:31;;;;;;;3.13;2.00;;;23.10;99.90;;;;;;5006193;28;20453;-75
2021/09/13 09:22:21;;;;;;;2.17;2.07;;;23.20;99.90;;;;;;5005807;28;20492;-74
2021/09/13 09:24:52;;;;;;;3.10;2.90;;;23.30;99.90;;;;;;5008079;28;20447;-78
2021/09/13 09:27:21;;;;;;;3.43;3.23;;;23.40;99.90;;;;;;5008527;28;20232;-82
2021/09/13 09:29:49;;;;;;;2.50;2.30;;;23.40;99.90;;;;;;5006087;28;20831;-81
2021/09/13 09:32:26;;;;;;;2.47;2.27;;;23.40;99.90;;;;;;5008605;28;20492;-79
2021/09/13 09:34:56;;;;;;;3.00;2.80;;;23.50;99.90;;;;;;5009983;28;21005;-79
2021/09/13 09:37:25;;;;;;;2.63;2.03;;;23.60;99.90;;;;;;5009626;28;20452;-79
2021/09/13 09:39:59;;;;;;;2.57;2.30;;;23.60;99.90;;;;;;5007663;28;20559;-76
2021/09/13 09:42:30;;;;;;;2.50;2.30;;;23.60;99.90;;;;;;5009754;28;20474;-79
2021/09/13 09:44:59;;;;;;;2.63;2.40;;;23.60;99.90;;;;;;5007515;28;20942;-76
2021/09/13 09:47:29;;;;;;;2.27;2.17;;;23.60;99.90;;;;;;5000562;28;20914;-77
2021/09/13 09:49:58;;;;;;;2.97;2.20;;;23.70;99.90;;;;;;5007316;28;20508;-78
2021/09/13 09:52:35;;;;;;;2.50;2.30;;;23.80;99.90;;;;;;5007402;28;20554;-78
2021/09/13 09:55:19;;;;;;;2.60;2.10;;;23.80;99.90;;;;;;5004677;28;20494;-78
2021/09/13 09:58:05;;;;;;;2.43;2.23;;;23.80;99.90;;;;;;5008490;28;20453;-79
2021/09/13 10:00:36;;;;;;;2.30;2.20;;;23.80;99.90;;;;;;5006352;28;20824;-81
2021/09/13 10:03:05;;;;;;;1.97;1.87;;;23.90;99.90;;;;;;5004894;28;20583;-77
2021/09/13 10:05:35;;;;;;;2.37;2.17;;;24.00;99.90;;;;;;5005093;28;20449;-79
2021/09/13 10:08:04;;;;;;;3.40;2.50;;;24.10;99.90;;;;;;5003577;28;20451;-78
2021/09/13 10:10:34;;;;;;;2.70;2.50;;;24.10;99.90;;;;;;5004067;28;20488;-76
2021/09/13 10:13:03;;;;;;;2.70;2.50;;;24.10;99.90;;;;;;5006391;28;20478;-78
2021/09/13 10:15:31;;;;;;;2.80;2.50;;;24.10;99.90;;;;;;5005439;28;20465;-77
2021/09/13 10:18:01;;;;;;;2.57;2.37;;;24.10;99.90;;;;;;5005829;28;20198;-78
2021/09/13 10:20:29;;;;;;;3.40;2.57;;;24.10;99.90;;;;;;5007897;28;20446;-78
2021/09/13 10:22:58;;;;;;;3.03;2.80;;;24.10;99.90;;;;;;4995779;28;20482;-77
2021/09/13 10:25:31;;;;;;;4.07;3.67;;;24.20;99.90;;;;;;5003891;28;20465;-78
2021/09/13 10:28:06;;;;;;;2.53;2.33;;;24.20;99.90;;;;;;5005971;28;20466;-77
2021/09/13 10:30:49;;;;;;;3.22;2.72;;;24.30;99.90;;;;;;4992775;28;20455;-78
2021/09/13 10:33:29;;;;;;;2.40;2.20;;;24.40;99.90;;;;;;5008359;28;20219;-78
2021/09/13 10:35:59;;;;;;;2.90;2.70;;;24.40;99.90;;;;;;5007269;28;20461;-77
2021/09/13 10:38:44;;;;;;;2.37;2.13;;;24.50;99.90;;;;;;5008160;28;20511;-78
2021/09/13 10:41:33;;;;;;;2.00;1.90;;;24.50;99.90;;;;;;5009393;28;20484;-77
2021/09/13 10:44:06;;;;;;;2.50;2.30;;;24.50;99.90;;;;;;5009824;28;21045;-78
2021/09/13 10:47:01;;;;;;;2.40;2.30;;;24.60;99.90;;;;;;5005410;28;20460;-79
2021/09/13 10:49:29;;;;;;;2.80;2.60;;;24.60;99.90;;;;;;5011307;28;20449;-78
2021/09/13 10:52:31;;;;;;;3.10;2.80;;;24.50;99.90;;;;;;5006935;28;21050;-78
2021/09/13 10:55:18;;;;;;;2.50;2.30;;;24.50;99.90;;;;;;5008716;28;20464;-80
2021/09/13 10:58:11;;;;;;;2.73;2.20;;;24.60;99.90;;;;;;5011477;28;20460;-78
2021/09/13 11:01:05;;;;;;;2.80;2.60;;;24.50;99.90;;;;;;5005807;28;20889;-79
2021/09/13 11:03:39;;;;;;;2.50;2.30;;;24.60;99.90;;;;;;5011625;28;20222;-77
2021/09/13 11:06:27;;;;;;;2.50;2.30;;;24.60;99.90;;;;;;5010602;28;20574;-78
2021/09/13 11:08:56;;;;;;;2.50;2.30;;;24.70;99.90;;;;;;5003951;28;20527;-77
2021/09/13 11:11:27;;;;;;;2.43;2.03;;;24.70;99.90;;;;;;5009093;28;20878;-76
2021/09/13 11:13:58;;;;;;;2.00;1.90;;;24.70;99.90;;;;;;5006752;28;20473;-77
2021/09/13 11:16:28;;;;;;;2.00;1.90;;;24.80;99.90;;;;;;5007327;28;20469;-79
2021/09/13 11:18:56;;;;;;;2.60;2.40;;;24.80;99.90;;;;;;4992516;28;20558;-78
2021/09/13 11:21:27;;;;;;;2.20;2.03;;;24.90;99.90;;;;;;5011225;28;20461;-79
2021/09/13 11:23:57;;;;;;;2.20;2.07;;;24.80;99.90;;;;;;5005303;28;20487;-76
2021/09/13 11:26:31;;;;;;;2.77;2.37;;;24.90;99.90;;;;;;5005527;28;20456;-80
2021/09/13 11:29:01;;;;;;;2.57;2.03;;;24.80;99.90;;;;;;5006332;28;20519;-79
2021/09/13 11:31:37;;;;;;;2.17;1.80;;;24.90;99.90;;;;;;5010002;28;20461;-78
2021/09/13 11:34:18;;;;;;;2.43;1.70;;;25.00;99.90;;;;;;5011920;28;20443;-79
2021/09/13 11:37:17;;;;;;;2.27;2.00;;;25.00;99.90;;;;;;5010706;28;20873;-79
2021/09/13 11:40:06;;;;;;;3.00;2.10;;;25.00;99.90;;;;;;4982523;28;20488;-79
2021/09/13 11:42:35;;;;;;;2.00;1.83;;;25.10;99.90;;;;;;5010574;28;20465;-79
2021/09/13 11:45:06;;;;;;;1.97;1.77;;;25.10;99.90;;;;;;5010148;28;20529;-78
2021/09/13 11:47:56;;;;;;;2.00;1.90;;;25.10;99.90;;;;;;5004012;28;20544;-78
2021/09/13 11:50:24;;;;;;;2.00;1.90;;;25.20;99.90;;;;;;5008928;28;20449;-78
2021/09/13 11:52:52;;;;;;;2.10;2.00;;;25.20;99.90;;;;;;4991176;28;20978;-79
2021/09/13 11:55:23;;;;;;;2.00;1.80;;;25.30;99.90;;;;;;5001318;28;20827;-79
2021/09/13 11:57:54;;;;;;;2.60;2.43;;;25.30;99.90;;;;;;5006568;28;20464;-78
2021/09/13 12:00:23;;;;;;;1.93;1.83;;;25.30;99.90;;;;;;5009331;28;20449;-78
2021/09/13 12:02:56;;;;;;;2.20;2.00;;;25.30;99.90;;;;;;5010664;28;20985;-77
2021/09/13 12:05:28;;;;;;;2.83;2.17;;;25.20;99.90;;;;;;5009553;28;20468;-78
2021/09/13 12:07:58;;;;;;;2.10;2.00;;;25.20;99.90;;;;;;5009458;28;20572;-79
2021/09/13 12:10:28;;;;;;;2.33;2.07;;;25.30;99.90;;;;;;5008497;28;20870;-79
2021/09/13 12:13:00;;;;;;;2.20;2.10;;;25.40;99.90;;;;;;5008971;28;20484;-79
2021/09/13 12:15:31;;;;;;;1.80;1.70;;;25.50;99.90;;;;;;4993709;28;20528;-78
2021/09/13 12:18:04;;;;;;;1.70;1.60;;;25.50;99.90;;;;;;5008024;28;20536;-76
2021/09/13 12:20:37;;;;;;;1.60;1.50;;;25.50;99.90;;;;;;5004303;28;20453;-78
2021/09/13 12:23:07;;;;;;;2.20;2.10;;;25.50;99.90;;;;;;5008669;28;20759;-78
2021/09/13 12:25:40;;;;;;;1.57;1.47;;;25.40;99.90;;;;;;5007295;28;20684;-79
2021/09/13 12:28:09;;;;;;;1.53;1.43;;;25.50;99.90;;;;;;5005720;28;20454;-78
2021/09/13 12:30:39;;;;;;;2.70;1.30;;;25.50;99.90;;;;;;5002747;28;21013;-79
2021/09/13 12:33:08;;;;;;;1.77;1.67;;;25.50;99.90;;;;;;5006990;28;20489;-78
2021/09/13 12:35:45;;;;;;;2.10;1.60;;;25.50;99.90;;;;;;5009341;28;21003;-79
2021/09/13 12:38:14;;;;;;;1.63;1.53;;;25.50;99.90;;;;;;5006586;28;20514;-78
2021/09/13 12:40:55;;;;;;;1.60;1.50;;;25.50;99.90;;;;;;5007068;28;20508;-77
2021/09/13 12:43:25;;;;;;;1.70;1.60;;;25.50;99.90;;;;;;5008628;28;20477;-78
2021/09/13 12:46:08;;;;;;;1.90;1.80;;;25.50;99.90;;;;;;5003243;28;20461;-77
2021/09/13 12:48:38;;;;;;;1.80;1.70;;;25.60;99.90;;;;;;5008574;28;20461;-78
2021/09/13 12:51:13;;;;;;;1.83;1.73;;;25.60;99.90;;;;;;5006938;28;20965;-80
2021/09/13 12:53:41;;;;;;;2.43;1.80;;;25.60;99.90;;;;;;5007601;28;20481;-79
2021/09/13 12:56:16;;;;;;;2.53;2.03;;;25.60;99.90;;;;;;5006181;28;20445;-79
2021/09/13 12:58:44;;;;;;;1.77;1.67;;;25.60;99.90;;;;;;4999775;28;20450;-78
2021/09/13 13:01:30;;;;;;;2.40;2.20;;;25.60;99.90;;;;;;5001249;28;20458;-78
2021/09/13 13:04:03;;;;;;;2.10;1.90;;;25.60;99.90;;;;;;5007277;28;20473;-78
2021/09/13 13:06:34;;;;;;;2.20;1.77;;;25.70;99.90;;;;;;5008572;28;20468;-78
2021/09/13 13:09:02;;;;;;;2.20;2.00;;;25.70;99.90;;;;;;5009266;28;20511;-77
2021/09/13 13:11:33;;;;;;;2.10;1.97;;;25.70;99.90;;;;;;5008960;28;20515;-77